Hafnia Victoria — 9V3232 — position and weather

sailwx.info

Track history (hours):
 
Tides and Currents Weather Stations Pressure Air Temp Water Temp Dewpoint Dewpoint Depression Visibility Wind Speed Wind Dir Waves Ship Positions

Hafnia Victoria

Last reported at 2017-Oct-17 22:00 UTC. Time now 2017-Oct-17 22:30 UTC.
Position N 38°50' W 009°57'.

Length 182 m; draft 6.5 m.

Type: Ship. MMSI: 566024000.

Date/timePositionNaut miles runAvg speedWind from/ knotsBaromVisibWave heightAir tempDewpointWater temp
2017-Oct-17 22:00N 38°50' W 009°57'713.3
2017-Oct-17 21:30N 38°43' W 009°57'713.1
2017-Oct-17 21:00N 38°37' W 009°55'612.9
2017-Oct-17 20:30N 38°30' W 009°53'713.5
2017-Oct-17 20:00N 38°24' W 009°51'1513.4
2017-Oct-17 18:54N 38°09' W 009°47'613.9
2017-Oct-17 18:27N 38°03' W 009°45'1413.5
2017-Oct-17 17:24N 37°49' W 009°41'8111.5
2017-Oct-17 10:22N 36°37' W 008°57'16612.6
2017-Oct-16 21:14N 35°58' W 005°37'314.2
2017-Oct-16 21:00N 35°59' W 005°33'812.9
2017-Oct-16 20:21N 36°01' W 005°23'412.7
2017-Oct-16 20:00N 36°03' W 005°18'15 1.0
2017-Oct-16 04:25N 36°13' W 005°04'4 1.3
2017-Oct-16 01:14N 36°09' W 005°05'1 1.2
2017-Oct-16 00:02N 36°10' W 005°05'3 1.1
2017-Oct-15 21:15N 36°11' W 005°09'2 6.8
2017-Oct-15 20:59N 36°11' W 005°11'6 1.3
2017-Oct-15 15:58N 36°05' W 005°13'612.2
2017-Oct-15 15:30N 36°04' W 005°20'5 3.0
2017-Oct-15 14:00N 36°07' W 005°24'1 0.0
2017-Oct-13 19:45N 36°08' W 005°24'2 6.6
2017-Oct-13 19:29N 36°07' W 005°23'4 9.1
2017-Oct-13 19:00N 36°05' W 005°18'1 1.7
2017-Oct-13 18:30N 36°05' W 005°17'1 2.0
2017-Oct-13 18:00N 36°05' W 005°18'2 3.3
2017-Oct-13 17:30N 36°04' W 005°20'3 6.6
2017-Oct-13 17:00N 36°04' W 005°16'20912.4
2017-Oct-13 00:08N 37°10' W 001°08'213.3
2017-Oct-13 00:00N 37°11' W 001°07'713.3
2017-Oct-12 23:30N 37°16' W 001°00'713.2
2017-Oct-12 22:59N 37°20' W 000°54'613.1
2017-Oct-12 22:30N 37°24' W 000°48'913.0
2017-Oct-12 21:50N 37°30' W 000°40'412.8
2017-Oct-12 21:30N 37°33' W 000°36'612.9
2017-Oct-12 21:00N 37°38' W 000°30'713.0
2017-Oct-12 20:30N 37°43' W 000°26'713.1
2017-Oct-12 19:57N 37°49' W 000°21'613.0
2017-Oct-12 19:30N 37°54' W 000°17'612.9
2017-Oct-12 19:00N 37°60' W 000°12'613.0
2017-Oct-12 18:30N 38°05' W 000°08'713.2
2017-Oct-12 18:00N 38°11' W 000°04'713.3
2017-Oct-12 17:30N 38°16' E 000°01'713.4
2017-Oct-12 17:00N 38°21' E 000°06'713.3
2017-Oct-12 16:30N 38°27' E 000°11'1712.8
2017-Oct-12 15:11N 38°41' E 000°23'312.5
2017-Oct-12 14:56N 38°44' E 000°25'512.4
2017-Oct-12 14:30N 38°48' E 000°29'612.5
2017-Oct-12 14:00N 38°53' E 000°33'335 8.6
2017-Oct-10 23:17N 43°25' E 004°53'0 0.0
2017-Oct-10 22:44N 43°25' E 004°53'0 0.0
2017-Oct-10 22:20N 43°25' E 004°53'0 0.0
2017-Oct-10 21:56N 43°25' E 004°53'0 0.0
2017-Oct-10 19:32N 43°25' E 004°53'0 0.0
2017-Oct-10 19:17N 43°25' E 004°53'0 0.0
2017-Oct-10 18:35N 43°25' E 004°53'0 0.0
2017-Oct-10 18:20N 43°25' E 004°53'0 0.0
2017-Oct-10 17:20N 43°25' E 004°53'0 0.0
2017-Oct-10 16:53N 43°25' E 004°53'0 0.0
2017-Oct-10 16:17N 43°25' E 004°53'0 0.0
2017-Oct-10 15:59N 43°25' E 004°53'0 0.5
2017-Oct-10 15:31N 43°25' E 004°53'2 4.6
2017-Oct-10 15:00N 43°24' E 004°56'0 0.1
2017-Oct-10 14:00N 43°24' E 004°56'0 0.1
2017-Oct-10 13:30N 43°24' E 004°56'0 0.1
2017-Oct-10 13:00N 43°24' E 004°56'0 0.1
2017-Oct-10 12:24N 43°24' E 004°56'0 0.0
2017-Oct-10 12:00N 43°24' E 004°56'0 0.0
2017-Oct-10 11:30N 43°24' E 004°56'0 0.0
2017-Oct-10 10:57N 43°24' E 004°56'0 0.0
2017-Oct-10 10:30N 43°24' E 004°56'0 0.0
2017-Oct-10 10:00N 43°24' E 004°56'0 0.0
2017-Oct-10 09:30N 43°24' E 004°56'0 0.0
2017-Oct-10 09:00N 43°24' E 004°56'0 0.0
2017-Oct-10 08:27N 43°24' E 004°56'0 0.0
2017-Oct-10 08:00N 43°24' E 004°56'2 4.0
2017-Oct-10 07:31N 43°23' E 004°58'1 2.6
2017-Oct-10 06:59N 43°24' E 004°60'0 0.0
2017-Oct-10 06:29N 43°24' E 004°60'0 0.0
2017-Oct-10 05:59N 43°24' E 004°60'0 0.0
2017-Oct-10 05:29N 43°24' E 004°60'0 0.0
2017-Oct-10 04:56N 43°24' E 004°60'0 0.0
2017-Oct-10 04:29N 43°24' E 004°60'0 0.0
2017-Oct-10 03:59N 43°24' E 004°60'0 0.0
2017-Oct-10 03:29N 43°24' E 004°60'0 0.0
2017-Oct-10 02:56N 43°24' E 004°60'0 0.0
2017-Oct-10 02:29N 43°24' E 004°60'0 0.0
2017-Oct-10 01:59N 43°24' E 004°60'0 0.0
2017-Oct-10 01:29N 43°24' E 004°60'0 0.0
2017-Oct-10 00:59N 43°24' E 004°60'0 0.0
2017-Oct-10 00:29N 43°24' E 004°60'0 0.0
2017-Oct-09 23:59N 43°24' E 004°60'0 0.0
2017-Oct-09 23:26N 43°24' E 004°60'0 0.0
2017-Oct-09 22:59N 43°24' E 004°60'0 0.0
2017-Oct-09 22:29N 43°24' E 004°60'0 0.0
2017-Oct-09 21:59N 43°24' E 004°60'0 0.0
2017-Oct-09 21:29N 43°24' E 004°60'0 0.0
2017-Oct-09 20:59N 43°24' E 004°60'0 0.0
2017-Oct-09 20:29N 43°24' E 004°60'0 0.0
2017-Oct-09 19:59N 43°24' E 004°60'0 0.0
2017-Oct-09 19:29N 43°24' E 004°60'0 0.0
2017-Oct-09 18:59N 43°24' E 004°60'0 0.0
2017-Oct-09 18:29N 43°24' E 004°60'0 0.0
2017-Oct-09 17:59N 43°24' E 004°60'0 0.0
2017-Oct-09 17:29N 43°24' E 004°60'0 0.0
2017-Oct-09 16:59N 43°24' E 004°60'0 0.0
2017-Oct-09 16:29N 43°24' E 004°60'0 0.0
2017-Oct-09 15:59N 43°24' E 004°60'0 0.0
2017-Oct-09 15:26N 43°24' E 004°60'0 0.0
2017-Oct-09 14:59N 43°24' E 004°60'0 0.0
2017-Oct-09 14:29N 43°24' E 004°60'0 0.0
2017-Oct-09 13:59N 43°24' E 004°60'0 0.0
2017-Oct-09 13:29N 43°24' E 004°60'0 0.0
2017-Oct-09 12:59N 43°24' E 004°60'0 0.0
2017-Oct-09 12:29N 43°24' E 004°60'0 0.0
2017-Oct-09 11:59N 43°24' E 004°60'0 0.0
2017-Oct-09 11:29N 43°24' E 004°60'0 0.0
2017-Oct-09 10:59N 43°24' E 004°60'0 0.0
2017-Oct-09 10:29N 43°24' E 004°60'0 0.0
2017-Oct-09 09:59N 43°24' E 004°60'0 0.0
2017-Oct-09 09:26N 43°24' E 004°60'0 0.0
2017-Oct-09 08:59N 43°24' E 004°60'0 0.0
2017-Oct-09 08:29N 43°24' E 004°60'0 0.0
2017-Oct-09 07:59N 43°24' E 004°60'0 0.0
2017-Oct-09 07:29N 43°24' E 004°60'0 0.0
2017-Oct-09 06:59N 43°24' E 004°60'0 0.0
2017-Oct-09 06:29N 43°24' E 004°60'0 0.0
2017-Oct-09 05:59N 43°24' E 004°60'0 0.0
2017-Oct-09 05:29N 43°24' E 004°60'0 0.0
2017-Oct-09 04:59N 43°24' E 004°60'0 0.0
2017-Oct-09 04:29N 43°24' E 004°60'0 0.0
2017-Oct-09 03:59N 43°24' E 004°60'0 0.0
2017-Oct-09 03:29N 43°24' E 004°60'0 0.0
2017-Oct-09 02:59N 43°24' E 004°60'0 0.0
2017-Oct-09 02:29N 43°24' E 004°60'0 0.0
2017-Oct-09 01:59N 43°24' E 004°60'0 0.0
2017-Oct-09 01:29N 43°24' E 004°60'0 0.0
2017-Oct-09 00:56N 43°24' E 004°60'0 0.0
2017-Oct-09 00:29N 43°24' E 004°60'0 0.0
2017-Oct-08 23:59N 43°24' E 004°60'0 0.0
2017-Oct-08 23:26N 43°24' E 004°60'0 0.0
2017-Oct-08 22:59N 43°24' E 004°60'0 0.0
2017-Oct-08 22:29N 43°24' E 004°60'0 0.0
2017-Oct-08 21:56N 43°24' E 004°60'0 0.0
2017-Oct-08 21:29N 43°24' E 004°60'0 0.0
2017-Oct-08 20:59N 43°24' E 004°60'0 0.0
2017-Oct-08 20:29N 43°24' E 004°60'0 0.0
2017-Oct-08 19:59N 43°24' E 004°60'0 0.0
2017-Oct-08 19:26N 43°24' E 004°60'0 0.0
2017-Oct-08 18:59N 43°24' E 004°60'0 0.0
2017-Oct-08 18:26N 43°24' E 004°60'0 0.0
2017-Oct-08 17:59N 43°24' E 004°60'0 0.0
2017-Oct-08 17:29N 43°24' E 004°60'0 0.0
2017-Oct-08 16:59N 43°24' E 004°60'0 0.0
2017-Oct-08 16:29N 43°24' E 004°60'0 0.0
2017-Oct-08 15:59N 43°24' E 004°60'0 0.0
2017-Oct-08 15:29N 43°24' E 004°60'0 0.0
2017-Oct-08 14:59N 43°24' E 004°60'0 0.0
2017-Oct-08 14:29N 43°24' E 004°60'0 0.0
2017-Oct-08 13:59N 43°24' E 004°60'0 0.0
2017-Oct-08 13:29N 43°24' E 004°60'0 0.0
2017-Oct-08 12:59N 43°24' E 004°60'0 0.0
2017-Oct-08 12:29N 43°24' E 004°60'0 0.0
2017-Oct-08 11:59N 43°24' E 004°60'0 0.0
2017-Oct-08 11:29N 43°24' E 004°60'0 0.0
2017-Oct-08 10:59N 43°24' E 004°60'0 0.0
2017-Oct-08 10:29N 43°24' E 004°60'0 0.0
2017-Oct-08 09:59N 43°24' E 004°60'0 0.0
2017-Oct-08 09:29N 43°24' E 004°60'0 0.0
2017-Oct-08 08:59N 43°24' E 004°60'0 0.0
2017-Oct-08 08:29N 43°24' E 004°60'0 0.0
2017-Oct-08 07:59N 43°24' E 004°60'0 0.0
2017-Oct-08 07:29N 43°24' E 004°60'0 0.0
2017-Oct-08 06:59N 43°24' E 004°60'0 0.0
2017-Oct-08 06:29N 43°24' E 004°60'0 0.0
2017-Oct-08 05:59N 43°24' E 004°60'0 0.0
2017-Oct-08 05:29N 43°24' E 004°60'0 0.0
2017-Oct-08 04:59N 43°24' E 004°60'0 0.0
2017-Oct-08 04:29N 43°24' E 004°60'0 0.0
2017-Oct-08 03:59N 43°24' E 004°60'0 0.0
2017-Oct-08 03:29N 43°24' E 004°60'0 0.0
2017-Oct-08 02:56N 43°24' E 004°60'0 0.0
2017-Oct-08 02:29N 43°24' E 004°60'0 0.0
2017-Oct-08 01:59N 43°24' E 004°60'0 0.0
2017-Oct-08 01:29N 43°24' E 004°60'0 0.0
2017-Oct-08 00:56N 43°24' E 004°60'0 0.0
2017-Oct-08 00:26N 43°24' E 004°60'0 0.0
2017-Oct-07 23:53N 43°24' E 004°60'0 0.0
2017-Oct-07 23:29N 43°24' E 004°60'0 0.0
2017-Oct-07 22:59N 43°24' E 004°60'0 0.0
2017-Oct-07 22:29N 43°24' E 004°60'  
Track history (hours):
 
Tides and Currents Weather Stations Pressure Air Temp Water Temp Dewpoint Dewpoint Depression Visibility Wind Speed Wind Dir Waves Ship Positions

Hafnia Victoria

Last reported at 2017-Oct-17 22:00 UTC. Time now 2017-Oct-17 22:30 UTC.
Position N 38°50' W 009°57'.

Length 182 m; draft 6.5 m.

Type: Ship. MMSI: 566024000.

Date/timePositionNaut miles runAvg speedWind from/ knotsBaromVisibWave heightAir tempDewpointWater temp
2017-Oct-17 22:00N 38°50' W 009°57'713.3
2017-Oct-17 21:30N 38°43' W 009°57'713.1
2017-Oct-17 21:00N 38°37' W 009°55'612.9
2017-Oct-17 20:30N 38°30' W 009°53'713.5
2017-Oct-17 20:00N 38°24' W 009°51'1513.4
2017-Oct-17 18:54N 38°09' W 009°47'613.9
2017-Oct-17 18:27N 38°03' W 009°45'1413.5
2017-Oct-17 17:24N 37°49' W 009°41'8111.5
2017-Oct-17 10:22N 36°37' W 008°57'16612.6
2017-Oct-16 21:14N 35°58' W 005°37'314.2
2017-Oct-16 21:00N 35°59' W 005°33'812.9
2017-Oct-16 20:21N 36°01' W 005°23'412.7
2017-Oct-16 20:00N 36°03' W 005°18'15 1.0
2017-Oct-16 04:25N 36°13' W 005°04'4 1.3
2017-Oct-16 01:14N 36°09' W 005°05'1 1.2
2017-Oct-16 00:02N 36°10' W 005°05'3 1.1
2017-Oct-15 21:15N 36°11' W 005°09'2 6.8
2017-Oct-15 20:59N 36°11' W 005°11'6 1.3
2017-Oct-15 15:58N 36°05' W 005°13'612.2
2017-Oct-15 15:30N 36°04' W 005°20'5 3.0
2017-Oct-15 14:00N 36°07' W 005°24'1 0.0
2017-Oct-13 19:45N 36°08' W 005°24'2 6.6
2017-Oct-13 19:29N 36°07' W 005°23'4 9.1
2017-Oct-13 19:00N 36°05' W 005°18'1 1.7
2017-Oct-13 18:30N 36°05' W 005°17'1 2.0
2017-Oct-13 18:00N 36°05' W 005°18'2 3.3
2017-Oct-13 17:30N 36°04' W 005°20'3 6.6
2017-Oct-13 17:00N 36°04' W 005°16'20912.4
2017-Oct-13 00:08N 37°10' W 001°08'213.3
2017-Oct-13 00:00N 37°11' W 001°07'713.3
2017-Oct-12 23:30N 37°16' W 001°00'713.2
2017-Oct-12 22:59N 37°20' W 000°54'613.1
2017-Oct-12 22:30N 37°24' W 000°48'913.0
2017-Oct-12 21:50N 37°30' W 000°40'412.8
2017-Oct-12 21:30N 37°33' W 000°36'612.9
2017-Oct-12 21:00N 37°38' W 000°30'713.0
2017-Oct-12 20:30N 37°43' W 000°26'713.1
2017-Oct-12 19:57N 37°49' W 000°21'613.0
2017-Oct-12 19:30N 37°54' W 000°17'612.9
2017-Oct-12 19:00N 37°60' W 000°12'613.0
2017-Oct-12 18:30N 38°05' W 000°08'713.2
2017-Oct-12 18:00N 38°11' W 000°04'713.3
2017-Oct-12 17:30N 38°16' E 000°01'713.4
2017-Oct-12 17:00N 38°21' E 000°06'713.3
2017-Oct-12 16:30N 38°27' E 000°11'1712.8
2017-Oct-12 15:11N 38°41' E 000°23'312.5
2017-Oct-12 14:56N 38°44' E 000°25'512.4
2017-Oct-12 14:30N 38°48' E 000°29'612.5
2017-Oct-12 14:00N 38°53' E 000°33'335 8.6
2017-Oct-10 23:17N 43°25' E 004°53'0 0.0
2017-Oct-10 22:44N 43°25' E 004°53'0 0.0
2017-Oct-10 22:20N 43°25' E 004°53'0 0.0
2017-Oct-10 21:56N 43°25' E 004°53'0 0.0
2017-Oct-10 19:32N 43°25' E 004°53'0 0.0
2017-Oct-10 19:17N 43°25' E 004°53'0 0.0
2017-Oct-10 18:35N 43°25' E 004°53'0 0.0
2017-Oct-10 18:20N 43°25' E 004°53'0 0.0
2017-Oct-10 17:20N 43°25' E 004°53'0 0.0
2017-Oct-10 16:53N 43°25' E 004°53'0 0.0
2017-Oct-10 16:17N 43°25' E 004°53'0 0.0
2017-Oct-10 15:59N 43°25' E 004°53'0 0.5
2017-Oct-10 15:31N 43°25' E 004°53'2 4.6
2017-Oct-10 15:00N 43°24' E 004°56'0 0.1
2017-Oct-10 14:00N 43°24' E 004°56'0 0.1
2017-Oct-10 13:30N 43°24' E 004°56'0 0.1
2017-Oct-10 13:00N 43°24' E 004°56'0 0.1
2017-Oct-10 12:24N 43°24' E 004°56'0 0.0
2017-Oct-10 12:00N 43°24' E 004°56'0 0.0
2017-Oct-10 11:30N 43°24' E 004°56'0 0.0
2017-Oct-10 10:57N 43°24' E 004°56'0 0.0
2017-Oct-10 10:30N 43°24' E 004°56'0 0.0
2017-Oct-10 10:00N 43°24' E 004°56'0 0.0
2017-Oct-10 09:30N 43°24' E 004°56'0 0.0
2017-Oct-10 09:00N 43°24' E 004°56'0 0.0
2017-Oct-10 08:27N 43°24' E 004°56'0 0.0
2017-Oct-10 08:00N 43°24' E 004°56'2 4.0
2017-Oct-10 07:31N 43°23' E 004°58'1 2.6
2017-Oct-10 06:59N 43°24' E 004°60'0 0.0
2017-Oct-10 06:29N 43°24' E 004°60'0 0.0
2017-Oct-10 05:59N 43°24' E 004°60'0 0.0
2017-Oct-10 05:29N 43°24' E 004°60'0 0.0
2017-Oct-10 04:56N 43°24' E 004°60'0 0.0
2017-Oct-10 04:29N 43°24' E 004°60'0 0.0
2017-Oct-10 03:59N 43°24' E 004°60'0 0.0
2017-Oct-10 03:29N 43°24' E 004°60'0 0.0
2017-Oct-10 02:56N 43°24' E 004°60'0 0.0
2017-Oct-10 02:29N 43°24' E 004°60'0 0.0
2017-Oct-10 01:59N 43°24' E 004°60'0 0.0
2017-Oct-10 01:29N 43°24' E 004°60'0 0.0
2017-Oct-10 00:59N 43°24' E 004°60'0 0.0
2017-Oct-10 00:29N 43°24' E 004°60'0 0.0
2017-Oct-09 23:59N 43°24' E 004°60'0 0.0
2017-Oct-09 23:26N 43°24' E 004°60'0 0.0
2017-Oct-09 22:59N 43°24' E 004°60'0 0.0
2017-Oct-09 22:29N 43°24' E 004°60'0 0.0
2017-Oct-09 21:59N 43°24' E 004°60'0 0.0
2017-Oct-09 21:29N 43°24' E 004°60'0 0.0
2017-Oct-09 20:59N 43°24' E 004°60'0 0.0
2017-Oct-09 20:29N 43°24' E 004°60'0 0.0
2017-Oct-09 19:59N 43°24' E 004°60'0 0.0
2017-Oct-09 19:29N 43°24' E 004°60'0 0.0
2017-Oct-09 18:59N 43°24' E 004°60'0 0.0
2017-Oct-09 18:29N 43°24' E 004°60'0 0.0
2017-Oct-09 17:59N 43°24' E 004°60'0 0.0
2017-Oct-09 17:29N 43°24' E 004°60'0 0.0
2017-Oct-09 16:59N 43°24' E 004°60'0 0.0
2017-Oct-09 16:29N 43°24' E 004°60'0 0.0
2017-Oct-09 15:59N 43°24' E 004°60'0 0.0
2017-Oct-09 15:26N 43°24' E 004°60'0 0.0
2017-Oct-09 14:59N 43°24' E 004°60'0 0.0
2017-Oct-09 14:29N 43°24' E 004°60'0 0.0
2017-Oct-09 13:59N 43°24' E 004°60'0 0.0
2017-Oct-09 13:29N 43°24' E 004°60'0 0.0
2017-Oct-09 12:59N 43°24' E 004°60'0 0.0
2017-Oct-09 12:29N 43°24' E 004°60'0 0.0
2017-Oct-09 11:59N 43°24' E 004°60'0 0.0
2017-Oct-09 11:29N 43°24' E 004°60'0 0.0
2017-Oct-09 10:59N 43°24' E 004°60'0 0.0
2017-Oct-09 10:29N 43°24' E 004°60'0 0.0
2017-Oct-09 09:59N 43°24' E 004°60'0 0.0
2017-Oct-09 09:26N 43°24' E 004°60'0 0.0
2017-Oct-09 08:59N 43°24' E 004°60'0 0.0
2017-Oct-09 08:29N 43°24' E 004°60'0 0.0
2017-Oct-09 07:59N 43°24' E 004°60'0 0.0
2017-Oct-09 07:29N 43°24' E 004°60'0 0.0
2017-Oct-09 06:59N 43°24' E 004°60'0 0.0
2017-Oct-09 06:29N 43°24' E 004°60'0 0.0
2017-Oct-09 05:59N 43°24' E 004°60'0 0.0
2017-Oct-09 05:29N 43°24' E 004°60'0 0.0
2017-Oct-09 04:59N 43°24' E 004°60'0 0.0
2017-Oct-09 04:29N 43°24' E 004°60'0 0.0
2017-Oct-09 03:59N 43°24' E 004°60'0 0.0
2017-Oct-09 03:29N 43°24' E 004°60'0 0.0
2017-Oct-09 02:59N 43°24' E 004°60'0 0.0
2017-Oct-09 02:29N 43°24' E 004°60'0 0.0
2017-Oct-09 01:59N 43°24' E 004°60'0 0.0
2017-Oct-09 01:29N 43°24' E 004°60'0 0.0
2017-Oct-09 00:56N 43°24' E 004°60'0 0.0
2017-Oct-09 00:29N 43°24' E 004°60'0 0.0
2017-Oct-08 23:59N 43°24' E 004°60'0 0.0
2017-Oct-08 23:26N 43°24' E 004°60'0 0.0
2017-Oct-08 22:59N 43°24' E 004°60'0 0.0
2017-Oct-08 22:29N 43°24' E 004°60'0 0.0
2017-Oct-08 21:56N 43°24' E 004°60'0 0.0
2017-Oct-08 21:29N 43°24' E 004°60'0 0.0
2017-Oct-08 20:59N 43°24' E 004°60'0 0.0
2017-Oct-08 20:29N 43°24' E 004°60'0 0.0
2017-Oct-08 19:59N 43°24' E 004°60'0 0.0
2017-Oct-08 19:26N 43°24' E 004°60'0 0.0
2017-Oct-08 18:59N 43°24' E 004°60'0 0.0
2017-Oct-08 18:26N 43°24' E 004°60'0 0.0
2017-Oct-08 17:59N 43°24' E 004°60'0 0.0
2017-Oct-08 17:29N 43°24' E 004°60'0 0.0
2017-Oct-08 16:59N 43°24' E 004°60'0 0.0
2017-Oct-08 16:29N 43°24' E 004°60'0 0.0
2017-Oct-08 15:59N 43°24' E 004°60'0 0.0
2017-Oct-08 15:29N 43°24' E 004°60'0 0.0
2017-Oct-08 14:59N 43°24' E 004°60'0 0.0
2017-Oct-08 14:29N 43°24' E 004°60'0 0.0
2017-Oct-08 13:59N 43°24' E 004°60'0 0.0
2017-Oct-08 13:29N 43°24' E 004°60'0 0.0
2017-Oct-08 12:59N 43°24' E 004°60'0 0.0
2017-Oct-08 12:29N 43°24' E 004°60'0 0.0
2017-Oct-08 11:59N 43°24' E 004°60'0 0.0
2017-Oct-08 11:29N 43°24' E 004°60'0 0.0
2017-Oct-08 10:59N 43°24' E 004°60'0 0.0
2017-Oct-08 10:29N 43°24' E 004°60'0 0.0
2017-Oct-08 09:59N 43°24' E 004°60'0 0.0
2017-Oct-08 09:29N 43°24' E 004°60'0 0.0
2017-Oct-08 08:59N 43°24' E 004°60'0 0.0
2017-Oct-08 08:29N 43°24' E 004°60'0 0.0
2017-Oct-08 07:59N 43°24' E 004°60'0 0.0
2017-Oct-08 07:29N 43°24' E 004°60'0 0.0
2017-Oct-08 06:59N 43°24' E 004°60'0 0.0
2017-Oct-08 06:29N 43°24' E 004°60'0 0.0
2017-Oct-08 05:59N 43°24' E 004°60'0 0.0
2017-Oct-08 05:29N 43°24' E 004°60'0 0.0
2017-Oct-08 04:59N 43°24' E 004°60'0 0.0
2017-Oct-08 04:29N 43°24' E 004°60'0 0.0
2017-Oct-08 03:59N 43°24' E 004°60'0 0.0
2017-Oct-08 03:29N 43°24' E 004°60'0 0.0
2017-Oct-08 02:56N 43°24' E 004°60'0 0.0
2017-Oct-08 02:29N 43°24' E 004°60'0 0.0
2017-Oct-08 01:59N 43°24' E 004°60'0 0.0
2017-Oct-08 01:29N 43°24' E 004°60'0 0.0
2017-Oct-08 00:56N 43°24' E 004°60'0 0.0
2017-Oct-08 00:26N 43°24' E 004°60'0 0.0
2017-Oct-07 23:53N 43°24' E 004°60'0 0.0
2017-Oct-07 23:29N 43°24' E 004°60'0 0.0
2017-Oct-07 22:59N 43°24' E 004°60'0 0.0
2017-Oct-07 22:29N 43°24' E 004°60'  

Dump ship's entire track history